KHTL/HTL METAR and TAF weather

Enter ICAO airport designator
Station Type Date Time Source
KHTL METAR 2020/06/05 08:19 UTC NOAA

KHTL 050819Z AUTO 11003KT 2 1/2SM BR CLR 12/12 A2984 RMK AO2 T01220117


Station Type Date Time Source
KHTL Decoded METAR 2020/06/05 08:19 UTC NOAA

ROSCOMMON COUNTY AIRPORT, MI, United States (KHTL) 44-21N 084-40W 351M
Jun 05, 2020 - 04:19 AM EDT / 2020.06.05 0819 UTC
Wind: from the ESE (110 degrees) at 3 MPH (3 KT):0
Visibility: 2 1/2 mile(s):0
Sky conditions: clear
Weather: mist
Temperature: 54.0 F (12.2 C)
Dew Point: 53.1 F (11.7 C)
Relative Humidity: 96%
Pressure (altimeter): 29.84 in. Hg (1010 hPa)
ob: KHTL 050819Z AUTO 11003KT 2 1/2SM BR CLR 12/12 A2984 RMK AO2 T01220117
cycle: 8

Station Type Date Time Source
KHTL TAF UTC NOAA

Error!

Example: see airport list